createdAt,value
2023-03-22T00:00:00.667Z,85.64
2023-03-22T00:02:27.730Z,86.20
2023-03-22T00:04:54.862Z,87.00
2023-03-22T00:07:21.768Z,86.84
2023-03-22T00:09:48.801Z,86.63
2023-03-22T00:12:15.595Z,87.05
2023-03-22T00:14:42.916Z,86.71
2023-03-22T00:17:09.764Z,87.14
2023-03-22T00:19:37.386Z,87.73
2023-03-22T00:22:06.254Z,88.75
2023-03-22T00:24:33.480Z,89.89
2023-03-22T00:27:00.996Z,90.71
2023-03-22T00:29:28.160Z,92.04
2023-03-22T00:31:56.103Z,92.68
2023-03-22T00:34:23.454Z,92.45
2023-03-22T00:36:51.855Z,92.44
2023-03-22T00:39:18.988Z,93.31
2023-03-22T00:41:45.874Z,93.49
2023-03-22T00:44:12.938Z,93.05
2023-03-22T00:46:39.842Z,93.40
2023-03-22T00:49:07.079Z,93.20
2023-03-22T00:51:33.885Z,92.83
2023-03-22T00:54:01.042Z,94.01
2023-03-22T00:56:28.845Z,94.70
2023-03-22T00:58:56.277Z,94.62
2023-03-22T01:01:23.250Z,95.39
2023-03-22T01:03:50.773Z,95.35
2023-03-22T01:06:18.343Z,95.20
2023-03-22T01:08:45.452Z,96.40
2023-03-22T01:11:12.982Z,96.66
2023-03-22T01:13:41.843Z,97.08
2023-03-22T01:16:09.841Z,97.58
2023-03-22T01:18:37.070Z,97.55
2023-03-22T01:21:04.135Z,97.85
2023-03-22T01:23:31.903Z,98.25
2023-03-22T01:25:58.772Z,97.76
2023-03-22T01:28:27.301Z,98.29
2023-03-22T01:30:55.010Z,99.37
2023-03-22T01:33:22.451Z,98.75
2023-03-22T01:35:49.269Z,99.87
2023-03-22T01:38:16.356Z,100.00
2023-03-22T01:40:43.237Z,100.00
2023-03-22T01:43:15.025Z,100.00
2023-03-22T01:45:43.276Z,100.00
2023-03-22T01:48:28.396Z,100.00
2023-03-22T01:51:12.122Z,100.00
2023-03-22T01:53:45.249Z,100.00
2023-03-22T01:56:12.845Z,100.00
2023-03-22T01:58:41.359Z,100.00
2023-03-22T02:01:10.507Z,100.00
2023-03-22T02:03:48.766Z,100.00
2023-03-22T02:06:16.521Z,100.00
2023-03-22T02:08:43.970Z,100.00
2023-03-22T02:11:17.181Z,100.00
2023-03-22T02:13:48.098Z,100.00
2023-03-22T02:16:41.461Z,100.00
2023-03-22T02:19:42.619Z,100.00
2023-03-22T02:22:15.064Z,100.00
2023-03-22T02:25:04.172Z,100.00
2023-03-22T02:27:40.471Z,100.00
2023-03-22T02:30:19.271Z,100.00
2023-03-22T02:32:54.856Z,100.00
2023-03-22T02:36:00.272Z,100.00
2023-03-22T02:38:26.994Z,100.00
2023-03-22T02:41:12.050Z,100.00
2023-03-22T02:44:03.400Z,100.00
2023-03-22T02:46:41.279Z,100.00
2023-03-22T02:49:22.443Z,100.00
2023-03-22T02:51:59.517Z,100.00
2023-03-22T02:54:33.538Z,100.00
2023-03-22T02:57:07.466Z,100.00
2023-03-22T02:59:38.436Z,100.00
2023-03-22T03:02:09.342Z,100.00
2023-03-22T03:04:42.168Z,100.00
2023-03-22T03:07:14.403Z,100.00
2023-03-22T03:09:42.946Z,100.00
2023-03-22T03:12:21.212Z,100.00
2023-03-22T03:14:48.355Z,100.00
2023-03-22T03:17:41.578Z,100.00
2023-03-22T03:20:37.158Z,100.00
2023-03-22T03:23:14.999Z,100.00
2023-03-22T03:26:04.638Z,100.00
2023-03-22T03:28:40.358Z,100.00
2023-03-22T03:31:09.884Z,100.00
2023-03-22T03:33:46.162Z,100.00
2023-03-22T03:36:17.165Z,100.00
2023-03-22T03:38:49.754Z,100.00
2023-03-22T03:41:20.457Z,100.00
2023-03-22T03:43:51.396Z,100.00
2023-03-22T03:46:18.451Z,100.00
2023-03-22T03:48:49.551Z,100.00
2023-03-22T03:51:16.576Z,100.00
2023-03-22T03:53:43.682Z,100.00
2023-03-22T03:56:10.879Z,100.00
2023-03-22T03:58:38.009Z,100.00
2023-03-22T04:01:05.397Z,100.00
2023-03-22T04:03:32.706Z,100.00
2023-03-22T04:05:59.896Z,100.00
2023-03-22T04:08:27.651Z,100.00
2023-03-22T04:10:54.485Z,100.00
2023-03-22T04:13:21.799Z,100.00
2023-03-22T04:15:53.556Z,100.00
2023-03-22T04:18:21.340Z,100.00
2023-03-22T04:20:49.479Z,100.00
2023-03-22T04:23:16.649Z,100.00
2023-03-22T04:25:43.720Z,100.00
2023-03-22T04:28:10.863Z,100.00
2023-03-22T04:30:38.730Z,100.00
2023-03-22T04:33:06.985Z,100.00
2023-03-22T04:35:37.038Z,100.00
2023-03-22T04:38:04.109Z,100.00
2023-03-22T04:40:35.315Z,100.00
2023-03-22T04:43:04.202Z,100.00
2023-03-22T04:45:32.214Z,100.00
2023-03-22T04:48:00.018Z,100.00
2023-03-22T04:50:28.255Z,100.00
2023-03-22T04:52:55.396Z,100.00
2023-03-22T04:55:22.315Z,100.00
2023-03-22T04:57:49.407Z,100.00
2023-03-22T05:00:17.244Z,100.00
2023-03-22T05:02:44.352Z,100.00
2023-03-22T05:05:11.194Z,100.00
2023-03-22T05:07:39.261Z,100.00
2023-03-22T05:10:07.199Z,100.00
2023-03-22T05:12:34.263Z,100.00
2023-03-22T05:15:03.681Z,100.00
2023-03-22T05:17:30.874Z,100.00
2023-03-22T05:19:57.719Z,100.00
2023-03-22T05:22:24.811Z,100.00
2023-03-22T05:24:51.791Z,100.00
2023-03-22T05:27:30.280Z,100.00
2023-03-22T05:29:57.338Z,100.00
2023-03-22T05:32:25.683Z,100.00
2023-03-22T05:34:52.805Z,100.00
2023-03-22T05:37:21.126Z,100.00
2023-03-22T05:39:47.894Z,100.00
2023-03-22T05:42:14.950Z,100.00
2023-03-22T05:44:41.732Z,100.00
2023-03-22T05:47:08.800Z,100.00
2023-03-22T05:49:35.802Z,100.00
2023-03-22T05:52:04.491Z,100.00
2023-03-22T05:54:31.486Z,100.00
2023-03-22T05:56:58.505Z,100.00
2023-03-22T05:59:25.433Z,100.00
2023-03-22T06:01:52.597Z,100.00
2023-03-22T06:04:21.001Z,100.00
2023-03-22T06:06:48.246Z,100.00
2023-03-22T06:09:17.669Z,99.75
2023-03-22T06:11:45.007Z,99.76
2023-03-22T06:14:12.110Z,98.82
2023-03-22T06:16:39.221Z,98.54
2023-03-22T06:19:06.124Z,97.37
2023-03-22T06:21:33.209Z,95.49
2023-03-22T06:23:59.957Z,96.21
2023-03-22T06:26:26.988Z,95.05
2023-03-22T06:28:53.748Z,94.16
2023-03-22T06:31:21.120Z,92.60
2023-03-22T06:33:48.146Z,93.15
2023-03-22T06:36:15.420Z,92.25
2023-03-22T06:38:42.236Z,92.11
2023-03-22T06:41:09.530Z,91.11
2023-03-22T06:43:36.294Z,90.70
2023-03-22T06:46:03.526Z,89.47
2023-03-22T06:48:30.325Z,88.45
2023-03-22T06:50:57.488Z,88.27
2023-03-22T06:53:24.302Z,87.96
2023-03-22T06:55:55.239Z,88.46
2023-03-22T06:58:22.660Z,86.45
2023-03-22T07:00:49.826Z,84.03
2023-03-22T07:03:16.672Z,84.41
2023-03-22T07:05:44.237Z,82.84
2023-03-22T07:08:11.022Z,81.49
2023-03-22T07:10:41.192Z,79.45
2023-03-22T07:13:08.254Z,79.52
2023-03-22T07:15:35.623Z,79.71
2023-03-22T07:18:02.781Z,79.89
2023-03-22T07:20:29.972Z,81.39
2023-03-22T07:22:57.347Z,78.87
2023-03-22T07:25:24.454Z,76.97
2023-03-22T07:27:51.326Z,76.96
2023-03-22T07:30:18.441Z,76.91
2023-03-22T07:32:45.597Z,76.17
2023-03-22T07:35:12.784Z,75.04
2023-03-22T07:37:39.658Z,73.45
2023-03-22T07:40:07.352Z,74.21
2023-03-22T07:42:34.769Z,71.87
2023-03-22T07:45:02.278Z,70.75
2023-03-22T07:47:40.348Z,70.41
2023-03-22T07:50:09.969Z,71.63
2023-03-22T07:52:37.154Z,69.85
2023-03-22T07:55:04.981Z,70.28
2023-03-22T07:57:31.803Z,68.97
2023-03-22T07:59:58.939Z,67.87
2023-03-22T08:02:26.083Z,67.48
2023-03-22T08:04:56.497Z,68.10
2023-03-22T08:07:25.214Z,67.10
2023-03-22T08:09:52.368Z,66.73
2023-03-22T08:12:19.572Z,67.12
2023-03-22T08:14:50.929Z,67.50
2023-03-22T08:17:18.924Z,66.71
2023-03-22T08:19:46.412Z,65.15
2023-03-22T08:22:15.488Z,65.99
2023-03-22T08:24:42.623Z,65.18
2023-03-22T08:27:09.362Z,66.48
2023-03-22T08:29:37.398Z,66.60
2023-03-22T08:32:05.762Z,66.17
2023-03-22T08:34:40.358Z,66.89
2023-03-22T08:37:07.488Z,65.62
2023-03-22T08:39:34.839Z,65.44
2023-03-22T08:42:01.680Z,65.40
2023-03-22T08:44:28.905Z,65.41
2023-03-22T08:46:56.011Z,65.60
2023-03-22T08:49:23.311Z,64.01
2023-03-22T08:51:50.129Z,64.18
2023-03-22T08:54:17.200Z,65.43
2023-03-22T08:56:44.015Z,65.56
2023-03-22T08:59:11.181Z,64.76
2023-03-22T09:01:38.257Z,64.22
2023-03-22T09:04:05.862Z,66.72
2023-03-22T09:06:32.910Z,67.18
2023-03-22T09:09:00.130Z,66.33
2023-03-22T09:11:27.946Z,64.87
2023-03-22T09:13:55.008Z,64.24
2023-03-22T09:16:22.074Z,64.22
2023-03-22T09:18:49.314Z,64.25
2023-03-22T09:21:16.165Z,62.60
2023-03-22T09:23:47.635Z,62.92
2023-03-22T09:26:15.081Z,62.74
2023-03-22T09:28:42.485Z,62.10
2023-03-22T09:31:10.402Z,62.65
2023-03-22T09:33:38.982Z,62.67
2023-03-22T09:36:06.099Z,62.18
2023-03-22T09:38:33.961Z,60.70
2023-03-22T09:41:05.787Z,61.00
2023-03-22T09:43:44.832Z,60.53
2023-03-22T09:46:23.365Z,60.46
2023-03-22T09:48:51.534Z,61.19
2023-03-22T09:51:54.439Z,62.40
2023-03-22T09:54:33.451Z,62.34
2023-03-22T09:57:24.368Z,62.45
2023-03-22T09:59:57.293Z,61.77
2023-03-22T10:02:33.391Z,61.65
2023-03-22T10:05:22.183Z,61.55
2023-03-22T10:08:10.611Z,60.84
2023-03-22T10:10:41.897Z,60.29
2023-03-22T10:13:30.916Z,61.44
2023-03-22T10:16:02.094Z,61.28
2023-03-22T10:18:43.545Z,63.84
2023-03-22T10:21:15.836Z,64.04
2023-03-22T10:23:57.072Z,64.79
2023-03-22T10:26:31.954Z,63.77
2023-03-22T10:29:21.505Z,63.17
2023-03-22T10:31:48.677Z,63.82
2023-03-22T10:34:20.971Z,64.85
2023-03-22T10:36:51.599Z,65.49
2023-03-22T10:39:44.374Z,65.51
2023-03-22T10:42:21.261Z,63.78
2023-03-22T10:45:00.635Z,63.69
2023-03-22T10:47:42.772Z,63.22
2023-03-22T10:50:20.373Z,63.41
2023-03-22T10:53:14.620Z,64.74
2023-03-22T10:55:43.718Z,63.57
2023-03-22T10:58:19.340Z,63.87
2023-03-22T11:00:49.402Z,64.03
2023-03-22T11:03:37.326Z,64.47
2023-03-22T11:06:07.134Z,64.87
2023-03-22T11:08:45.166Z,64.79
2023-03-22T11:11:34.873Z,64.07
2023-03-22T11:14:07.161Z,64.46
2023-03-22T11:16:55.234Z,63.83
2023-03-22T11:19:26.757Z,63.70
2023-03-22T11:21:57.389Z,63.31
2023-03-22T11:24:27.574Z,63.68
2023-03-22T11:27:40.212Z,63.74
2023-03-22T11:30:28.424Z,63.73
2023-03-22T11:33:05.485Z,64.46
2023-03-22T11:35:32.898Z,64.81
2023-03-22T11:38:02.366Z,64.25
2023-03-22T11:40:36.692Z,63.67
2023-03-22T11:43:23.193Z,63.95
2023-03-22T11:45:55.747Z,64.11
2023-03-22T11:48:25.643Z,63.53
2023-03-22T11:51:04.080Z,63.77
2023-03-22T11:53:33.874Z,62.95
2023-03-22T11:56:03.124Z,62.20
2023-03-22T11:58:52.485Z,62.53
2023-03-22T12:01:36.640Z,62.00
2023-03-22T12:04:07.802Z,60.78
2023-03-22T12:06:39.875Z,60.80
2023-03-22T12:09:27.055Z,60.42
2023-03-22T12:11:57.683Z,58.67
2023-03-22T12:14:45.422Z,58.21
2023-03-22T12:17:18.498Z,57.23
2023-03-22T12:20:21.758Z,55.69
2023-03-22T12:22:53.329Z,57.86
2023-03-22T12:25:27.126Z,56.76
2023-03-22T12:27:59.434Z,55.87
2023-03-22T12:30:29.915Z,56.36
2023-03-22T12:33:29.888Z,56.09
2023-03-22T12:36:02.808Z,58.13
2023-03-22T12:38:35.546Z,56.59
2023-03-22T12:41:08.138Z,55.96
2023-03-22T12:43:59.201Z,55.28
2023-03-22T12:46:40.269Z,54.94
2023-03-22T12:49:19.368Z,54.88
2023-03-22T12:51:47.194Z,55.13
2023-03-22T12:54:22.956Z,54.00
2023-03-22T12:56:51.365Z,54.59
2023-03-22T12:59:23.393Z,54.33
2023-03-22T13:02:01.148Z,54.89
2023-03-22T13:04:51.356Z,52.48
2023-03-22T13:07:18.091Z,51.34
2023-03-22T13:09:50.133Z,50.36
2023-03-22T13:12:16.975Z,49.04
2023-03-22T13:14:52.921Z,49.30
2023-03-22T13:17:22.568Z,48.53
2023-03-22T13:20:06.705Z,47.56
2023-03-22T13:22:36.467Z,47.29
2023-03-22T13:25:13.273Z,46.66
2023-03-22T13:27:46.021Z,46.33
2023-03-22T13:30:34.867Z,45.67
2023-03-22T13:33:14.821Z,46.06
2023-03-22T13:35:48.569Z,44.59
2023-03-22T13:38:30.787Z,45.74
2023-03-22T13:41:08.727Z,44.99
2023-03-22T13:43:47.450Z,45.40
2023-03-22T13:46:17.457Z,45.30
2023-03-22T13:48:47.624Z,45.52
2023-03-22T13:51:21.604Z,45.30
2023-03-22T13:54:16.397Z,44.92
2023-03-22T13:56:49.778Z,44.53
2023-03-22T14:00:08.892Z,44.34
2023-03-22T14:02:42.236Z,44.58
2023-03-22T14:05:17.639Z,44.73
2023-03-22T14:07:52.294Z,43.99
2023-03-22T14:10:31.088Z,43.83
2023-03-22T14:13:05.692Z,44.29
2023-03-22T14:15:37.517Z,43.70
2023-03-22T14:18:27.034Z,43.43
2023-03-22T14:20:58.992Z,43.77
